DAUG/GHA METAR and TAF weather

Enter ICAO airport designator
Station Type Date Time Source
DAUG METAR 2022/12/10 01:00 UTC NOAA

DAUG 100100Z 27021KT 9999 -RA BKN040 SCT090 19/12 Q1012


Station Type Date Time Source
DAUG Decoded METAR 2022/12/10 01:00 UTC NOAA

Ghardaia, Algeria (DAUG) 32-23N 003-49E 450M
Dec 09, 2022 - 08:00 PM EST / 2022.12.10 0100 UTC
Wind: from the W (270 degrees) at 24 MPH (21 KT):0
Visibility: greater than 7 mile(s):0
Sky conditions: mostly cloudy
Weather: light rain
Temperature: 66 F (19 C)
Dew Point: 53 F (12 C)
Relative Humidity: 63%
Pressure (altimeter): 29.88 in. Hg (1012 hPa)
ob: DAUG 100100Z 27021KT 9999 -RA BKN040 SCT090 19/12 Q1012
cycle: 1

Station Type Date Time Source
DAUG TAF 2022/12/09 18:33 UTC NOAA

TAF DAUG 091700Z 0918/1018 24012KT 9999 SCT033 SCT080 PROB40
TEMPO 0918/1002 4000 -TSRA FEW033CB PROB30
TEMPO 0918/0924 28015G30KT 1500 BLSA FEW033CB

Example: see airport list